Time;durP1;ratioP1;P1;durP2;ratioP2;P2;SDS_P1;SDS_P2;PMS_P1;PMS_P2;Temp;Humidity;BMP_temperature;BMP_pressure;BME280_temperature;BME280_humidity;BME280_pressure;Samples;Min_cycle;Max_cycle;Signal;HPM_P1;HPM_P2
2022/04/30 00:01:31;;;;;;;151.32;29.45;;;;;;;20.77;29.30;101684.28;4193705;28;20041;-67
2022/04/30 00:03:33;;;;;;;143.38;28.77;;;;;;;20.78;29.06;101702.66;4197778;28;20569;-68
2022/04/30 00:05:34;;;;;;;144.88;28.00;;;;;;;20.75;29.05;101700.38;4196919;28;20044;-67
2022/04/30 00:07:36;;;;;;;122.30;25.42;;;;;;;20.72;29.47;101716.78;4197535;28;20102;-68
2022/04/30 00:09:38;;;;;;;125.03;25.38;;;;;;;20.61;28.98;101698.28;4197175;28;20032;-67
2022/04/30 00:11:39;;;;;;;130.02;24.90;;;;;;;20.69;28.80;101712.56;4197342;28;20040;-68
2022/04/30 00:13:43;;;;;;;108.18;21.92;;;;;;;20.68;28.63;101716.44;4197349;28;20086;-67
2022/04/30 00:15:50;;;;;;;111.05;22.77;;;;;;;20.66;28.64;101729.75;4196470;28;20086;-67
2022/04/30 00:17:51;;;;;;;116.90;21.58;;;;;;;20.63;28.32;101724.72;4198479;28;20037;-67
2022/04/30 00:19:53;;;;;;;99.78;21.90;;;;;;;20.61;28.61;101726.91;4200383;28;20044;-67
2022/04/30 00:21:54;;;;;;;104.32;20.55;;;;;;;20.59;27.38;101734.69;4200232;28;20029;-67
2022/04/30 00:23:56;;;;;;;80.60;16.77;;;;;;;20.55;27.44;101744.66;4200265;28;20052;-68
2022/04/30 00:25:57;;;;;;;80.32;16.13;;;;;;;20.56;26.74;101740.75;4200424;28;20093;-67
2022/04/30 00:27:58;;;;;;;75.85;15.27;;;;;;;20.48;27.14;101733.75;4199793;28;20048;-67
2022/04/30 00:30:00;;;;;;;67.18;15.57;;;;;;;20.31;26.67;101713.47;4200267;28;20036;-67
2022/04/30 00:32:03;;;;;;;66.97;16.33;;;;;;;20.29;26.69;101716.47;4200272;28;20468;-67
2022/04/30 00:34:05;;;;;;;47.45;12.40;;;;;;;20.35;26.44;101722.97;4200031;28;20530;-67
2022/04/30 00:36:07;;;;;;;64.40;14.18;;;;;;;20.45;26.57;101755.63;4199669;28;20045;-68
2022/04/30 00:38:15;;;;;;;56.50;13.43;;;;;;;20.45;26.43;101758.41;4200188;28;20407;-67
2022/04/30 00:40:16;;;;;;;63.90;12.88;;;;;;;20.45;26.91;101755.63;4199517;28;20121;-67
2022/04/30 00:42:20;;;;;;;66.55;13.95;;;;;;;20.44;27.22;101762.28;4199934;28;20105;-67
2022/04/30 00:44:24;;;;;;;64.05;13.40;;;;;;;20.44;27.92;101765.06;4199754;28;20074;-68
2022/04/30 00:46:26;;;;;;;54.17;13.67;;;;;;;20.37;27.51;101764.41;4199711;28;20480;-67
2022/04/30 00:48:28;;;;;;;54.95;13.40;;;;;;;20.26;27.80;101742.03;4200017;28;20109;-67
2022/04/30 00:50:36;;;;;;;45.13;12.50;;;;;;;20.40;27.32;101777.78;4199691;28;20036;-68
2022/04/30 00:52:41;;;;;;;47.03;12.18;;;;;;;20.40;27.06;101792.53;4200415;28;20036;-67
2022/04/30 00:54:48;;;;;;;43.88;10.85;;;;;;;20.26;26.79;101775.38;4199885;28;20074;-69
2022/04/30 00:56:59;;;;;;;47.92;10.85;;;;;;;20.28;26.30;101766.78;4199666;28;20410;-67
2022/04/30 00:59:03;;;;;;;37.05;9.85;;;;;;;20.40;26.19;101797.25;4199448;28;20182;-67
2022/04/30 01:01:04;;;;;;;36.05;9.30;;;;;;;20.39;26.46;101789.97;4199742;28;20098;-67
2022/04/30 01:03:06;;;;;;;38.22;9.27;;;;;;;20.27;26.41;101781.78;4199545;28;20169;-67
2022/04/30 01:05:07;;;;;;;36.05;9.35;;;;;;;20.36;26.43;101801.63;4199463;28;20036;-67
2022/04/30 01:07:12;;;;;;;35.55;8.10;;;;;;;20.33;25.87;101800.19;4199612;28;20090;-67
2022/04/30 01:09:14;;;;;;;35.80;8.05;;;;;;;20.24;25.34;101787.84;4199620;28;20422;-69
2022/04/30 01:11:16;;;;;;;28.77;8.23;;;;;;;20.29;25.62;101802.66;4199189;28;20108;-67
2022/04/30 01:13:20;;;;;;;24.98;7.13;;;;;;;20.25;24.92;101806.19;4199501;28;20365;-67
2022/04/30 01:15:29;;;;;;;26.08;7.85;;;;;;;20.26;25.07;101807.91;4199007;28;20024;-67
2022/04/30 01:17:35;;;;;;;18.25;6.15;;;;;;;20.25;24.53;101814.53;4199529;28;20036;-67
2022/04/30 01:19:49;;;;;;;24.02;6.47;;;;;;;20.23;24.17;101814.78;4199081;28;20036;-67
2022/04/30 01:21:53;;;;;;;24.77;7.25;;;;;;;20.22;24.86;101821.44;4199943;28;20044;-67
2022/04/30 01:23:55;;;;;;;22.65;6.40;;;;;;;20.22;25.16;101824.22;4199305;28;20032;-67
2022/04/30 01:26:02;;;;;;;23.73;5.60;;;;;;;20.17;24.48;101820.53;4199150;28;20517;-68
2022/04/30 01:28:08;;;;;;;25.35;6.90;;;;;;;20.19;24.98;101821.94;4199012;28;20474;-68
2022/04/30 01:30:11;;;;;;;20.33;5.93;;;;;;;20.16;25.46;101830.81;4198440;28;20094;-67
2022/04/30 01:39:13;;;;;;;18.48;5.93;;;;;;;20.16;25.28;101854.97;4199483;28;20434;-69
2022/04/30 01:41:17;;;;;;;26.58;5.85;;;;;;;19.98;25.46;101829.16;4198167;28;20056;-67
2022/04/30 01:43:21;;;;;;;19.40;5.55;;;;;;;20.03;24.96;101854.22;4198708;28;20059;-67
2022/04/30 01:45:22;;;;;;;17.02;5.10;;;;;;;20.15;25.54;101867.19;4198787;28;20114;-66
2022/04/30 01:47:27;;;;;;;19.88;5.90;;;;;;;20.13;25.50;101875.78;4198958;28;20044;-67
2022/04/30 01:49:28;;;;;;;19.05;5.72;;;;;;;20.12;25.88;101863.00;4198920;28;20070;-67
2022/04/30 01:51:29;;;;;;;19.98;5.72;;;;;;;20.12;26.08;101874.09;4198703;28;20090;-67
2022/04/30 01:53:31;;;;;;;19.00;6.05;;;;;;;20.13;25.92;101875.78;4198870;28;20098;-67
2022/04/30 01:55:35;;;;;;;22.30;5.50;;;;;;;20.13;26.05;101873.00;4198177;28;20090;-66
2022/04/30 01:57:41;;;;;;;18.48;5.13;;;;;;;20.13;26.09;101881.34;4199567;28;20044;-67
2022/04/30 01:59:42;;;;;;;19.70;5.75;;;;;;;19.98;25.66;101856.94;4198774;28;20094;-66
2022/04/30 02:01:44;;;;;;;19.55;5.78;;;;;;;20.12;26.39;101873.25;4198884;28;20129;-66
2022/04/30 02:03:46;;;;;;;18.05;5.38;;;;;;;20.10;25.76;101887.38;4198410;28;20090;-67
2022/04/30 02:05:47;;;;;;;21.70;5.20;;;;;;;20.10;25.55;101892.94;4198413;28;20462;-67
2022/04/30 02:08:11;;;;;;;18.23;5.10;;;;;;;20.07;25.57;101887.91;4198592;28;20094;-67
2022/04/30 02:10:14;;;;;;;20.00;4.93;;;;;;;20.02;25.86;101880.34;4198260;28;20044;-69
2022/04/30 02:12:15;;;;;;;12.15;4.45;;;;;;;20.09;26.11;101891.28;4198775;28;20050;-67
2022/04/30 02:14:18;;;;;;;15.60;5.10;;;;;;;20.08;26.17;101900.72;4198306;28;20553;-67
2022/04/30 02:16:21;;;;;;;16.23;4.90;;;;;;;20.09;25.64;101905.16;4198313;28;20048;-68
2022/04/30 02:18:27;;;;;;;15.80;4.75;;;;;;;20.09;25.12;101904.31;4198445;28;20377;-67
2022/04/30 02:20:29;;;;;;;14.95;4.15;;;;;;;20.08;25.73;101910.97;4198418;28;20082;-67
2022/04/30 02:22:31;;;;;;;12.73;3.80;;;;;;;19.89;25.64;101888.16;4198468;28;20032;-68
2022/04/30 02:24:35;;;;;;;15.30;4.72;;;;;;;20.05;25.41;101915.09;4198672;28;20106;-67
2022/04/30 02:26:40;;;;;;;14.75;5.00;;;;;;;20.02;25.59;101912.81;4197800;28;20037;-67
2022/04/30 02:28:42;;;;;;;;;;;;;;;20.01;25.24;101919.47;4198634;28;20472;-67
2022/04/30 02:30:43;;;;;;;12.73;3.80;;;;;;;20.08;24.79;101924.88;4198059;28;19916;-67
2022/04/30 02:32:50;;;;;;;10.00;4.13;;;;;;;20.06;25.30;101922.31;4198315;28;20040;-68
2022/04/30 02:34:51;;;;;;;12.35;4.18;;;;;;;20.05;25.13;101928.97;4198356;28;20476;-67
2022/04/30 02:36:53;;;;;;;15.40;4.75;;;;;;;19.92;25.68;101909.84;4197963;28;20090;-67
2022/04/30 02:38:59;;;;;;;9.82;3.90;;;;;;;20.01;25.39;101938.91;4198065;28;20049;-67
2022/04/30 02:41:03;;;;;;;10.32;3.60;;;;;;;20.01;25.57;101936.13;4197678;28;20044;-67
2022/04/30 02:43:06;;;;;;;11.20;3.83;;;;;;;19.97;25.59;101949.69;4197596;28;20074;-67
2022/04/30 02:45:13;;;;;;;10.40;4.32;;;;;;;19.93;25.49;101931.84;4198084;28;20098;-67
2022/04/30 02:47:17;;;;;;;7.57;3.30;;;;;;;19.98;25.29;101948.59;4198425;28;20079;-67
2022/04/30 02:49:19;;;;;;;11.38;3.92;;;;;;;19.99;25.35;101946.66;4198188;28;20032;-67
2022/04/30 02:51:23;;;;;;;10.15;3.20;;;;;;;19.97;25.21;101955.22;4198321;28;20044;-68
2022/04/30 02:53:24;;;;;;;11.48;3.92;;;;;;;19.97;25.05;101959.94;4198181;28;20040;-68
2022/04/30 02:55:26;;;;;;;11.60;4.18;;;;;;;19.95;25.37;101968.53;4197150;28;20506;-67
2022/04/30 03:00:08;;;;;;;6.88;3.10;;;;;;;19.95;24.98;101973.25;4198279;28;20085;-68
2022/04/30 03:02:09;;;;;;;9.90;3.75;;;;;;;19.93;25.14;101967.09;4198308;28;20041;-69
2022/04/30 03:04:14;;;;;;;7.40;2.95;;;;;;;19.94;25.50;101974.34;4198054;28;20173;-68
2022/04/30 03:06:19;;;;;;;8.83;3.43;;;;;;;19.84;25.19;101966.69;4197814;28;20045;-68
2022/04/30 03:08:22;;;;;;;14.10;3.92;;;;;;;19.86;24.90;101969.19;4197816;28;20062;-68
2022/04/30 03:10:24;;;;;;;7.30;2.65;;;;;;;19.91;24.05;101977.63;4198261;28;20033;-68
2022/04/30 03:12:27;;;;;;;4.68;2.88;;;;;;;19.88;23.96;101992.84;4197870;28;20134;-68
2022/04/30 03:14:29;;;;;;;7.63;2.97;;;;;;;19.88;23.95;101986.44;4197720;28;20025;-68
2022/04/30 03:23:15;;;;;;;5.53;2.45;;;;;;;19.83;23.77;102000.25;4197992;28;20537;-68
2022/04/30 03:25:17;;;;;;;12.05;3.10;;;;;;;19.80;24.54;101996.03;4197225;28;20029;-68
2022/04/30 03:27:18;;;;;;;4.60;2.17;;;;;;;19.80;24.53;101996.88;4197186;28;20102;-68
2022/04/30 03:29:20;;;;;;;5.78;2.47;;;;;;;19.80;24.62;101987.72;4197671;28;20532;-68
2022/04/30 03:31:24;;;;;;;6.15;2.55;;;;;;;19.79;23.92;101997.97;4197814;28;20036;-68
2022/04/30 03:33:28;;;;;;;6.85;2.63;;;;;;;19.78;23.92;101999.03;4197976;28;20062;-69
2022/04/30 03:35:29;;;;;;;5.38;2.50;;;;;;;19.71;24.36;101986.41;4197146;28;20480;-68
2022/04/30 03:37:32;;;;;;;3.95;2.13;;;;;;;19.73;24.38;101981.44;4198078;28;20044;-68
2022/04/30 03:39:36;;;;;;;6.63;2.30;;;;;;;19.76;23.99;101992.91;4196711;28;20074;-68
2022/04/30 03:41:38;;;;;;;5.63;2.53;;;;;;;19.76;24.25;102004.03;4197655;28;20368;-68
2022/04/30 03:43:39;;;;;;;5.72;2.65;;;;;;;19.75;24.34;102010.66;4197475;28;20086;-69
2022/04/30 03:45:41;;;;;;;8.35;2.50;;;;;;;19.75;23.91;102002.34;4197516;28;20044;-69
2022/04/30 03:47:42;;;;;;;4.40;2.10;;;;;;;19.74;24.11;102002.56;4197960;28;20094;-68
2022/04/30 03:49:44;;;;;;;7.75;2.45;;;;;;;19.70;24.04;101999.47;4198351;28;20036;-70
2022/04/30 03:51:51;;;;;;;6.88;2.35;;;;;;;19.70;24.20;102002.25;4195051;28;20045;-68
2022/04/30 03:53:55;;;;;;;4.13;2.25;;;;;;;19.68;24.10;101995.22;4200598;28;20044;-68
2022/04/30 03:56:00;;;;;;;5.55;2.25;;;;;;;19.69;24.81;102005.25;4193511;28;20536;-68
2022/04/30 03:58:02;;;;;;;5.28;2.35;;;;;;;19.21;24.54;101926.81;4189204;28;20542;-69
2022/04/30 04:00:04;;;;;;;6.43;1.88;;;;;;;19.56;24.24;101989.69;4195381;28;20476;-70
2022/04/30 04:02:06;;;;;;;6.75;2.22;;;;;;;19.68;24.53;102007.19;4200438;28;20029;-69
2022/04/30 04:04:08;;;;;;;5.50;1.70;;;;;;;19.54;23.95;102002.97;4198279;28;20097;-68
2022/04/30 04:06:13;;;;;;;4.03;1.92;;;;;;;19.40;23.76;101993.25;4200210;28;20094;-69
2022/04/30 04:08:16;;;;;;;6.78;1.92;;;;;;;19.66;23.77;102031.59;4187613;28;20052;-67
2022/04/30 04:10:18;;;;;;;4.07;1.70;;;;;;;19.65;24.08;102035.44;4183778;28;20041;-69
2022/04/30 04:12:19;;;;;;;7.68;2.28;;;;;;;19.65;24.50;102038.22;4184582;28;20488;-67
2022/04/30 04:19:03;;;;;;;15.85;3.38;;;;;;;19.69;24.21;102046.91;4198999;28;20173;-68
2022/04/30 04:21:08;;;;;;;9.15;2.25;;;;;;;19.68;23.89;102054.41;4198173;28;20044;-69
2022/04/30 04:23:10;;;;;;;5.95;2.30;;;;;;;19.66;23.60;102056.59;4189824;28;20087;-72
2022/04/30 04:27:37;;;;;;;57.42;5.38;;;;;;;19.66;24.22;102051.03;4189106;28;20106;-70
2022/04/30 04:29:41;;;;;;;62.60;4.90;;;;;;;19.51;24.95;102022.88;4198184;28;20040;-69
2022/04/30 04:31:46;;;;;;;23.02;3.03;;;;;;;19.70;25.35;102060.56;4200021;28;20036;-68
2022/04/30 04:33:47;;;;;;;17.67;2.90;;;;;;;19.73;25.92;102048.94;4197460;28;20024;-68
2022/04/30 04:35:49;;;;;;;12.25;2.65;;;;;;;19.75;26.13;102062.59;4199290;28;20041;-68
2022/04/30 04:37:51;;;;;;;16.38;2.90;;;;;;;19.77;26.80;102055.69;4198416;28;20040;-70
2022/04/30 04:39:53;;;;;;;15.43;2.40;;;;;;;19.79;26.39;102058.22;4201059;28;20105;-69
2022/04/30 04:41:55;;;;;;;10.65;2.45;;;;;;;19.82;26.40;102059.66;4200102;28;20106;-69
2022/04/30 04:43:56;;;;;;;15.65;3.00;;;;;;;19.83;26.96;102059.41;4197652;28;20284;-69
2022/04/30 04:45:58;;;;;;;12.63;2.58;;;;;;;19.66;26.62;102027.97;4199325;28;20082;-69
2022/04/30 04:47:59;;;;;;;17.15;2.80;;;;;;;19.85;27.18;102065.59;4198160;28;20066;-69
2022/04/30 04:50:23;;;;;;;10.77;2.50;;;;;;;19.82;26.93;102056.88;4193201;28;20103;-69
2022/04/30 04:52:25;;;;;;;15.98;3.20;;;;;;;19.86;27.19;102058.09;4183743;28;20037;-69
2022/04/30 04:54:29;;;;;;;16.33;2.83;;;;;;;19.80;27.06;102049.66;4197070;28;20082;-69
2022/04/30 04:56:31;;;;;;;18.08;2.20;;;;;;;19.89;27.40;102057.59;4199273;28;20443;-69
2022/04/30 04:58:32;;;;;;;12.80;2.35;;;;;;;19.90;27.10;102054.56;4195667;28;20458;-68
2022/04/30 05:00:33;;;;;;;12.48;2.47;;;;;;;19.91;27.24;102056.25;4198431;28;20434;-68
2022/04/30 05:02:37;;;;;;;11.50;2.50;;;;;;;19.93;27.80;102048.53;4197448;28;20122;-68
2022/04/30 05:04:38;;;;;;;15.98;3.17;;;;;;;19.95;27.71;102062.16;4196416;28;20053;-68
2022/04/30 05:06:40;;;;;;;9.70;2.40;;;;;;;19.95;27.71;102062.16;4199403;28;20033;-68
2022/04/30 05:08:44;;;;;;;15.27;2.75;;;;;;;19.95;27.74;102053.81;4198362;28;20086;-67
2022/04/30 05:10:45;;;;;;;13.75;3.00;;;;;;;19.98;27.75;102067.22;4199630;28;20040;-68
2022/04/30 05:12:47;;;;;;;12.13;2.58;;;;;;;19.99;27.93;102057.81;4197930;28;20044;-68
2022/04/30 05:14:48;;;;;;;6.38;2.00;;;;;;;19.96;28.17;102058.28;4199550;28;20040;-68
2022/04/30 05:16:49;;;;;;;8.93;2.30;;;;;;;20.00;27.89;102053.94;4198708;28;20374;-68
2022/04/30 05:18:51;;;;;;;11.88;2.88;;;;;;;20.00;28.12;102057.53;4195579;28;20113;-68
2022/04/30 05:20:53;;;;;;;9.23;2.70;;;;;;;20.01;27.97;102055.59;4199497;28;20037;-67
2022/04/30 05:22:54;;;;;;;9.80;2.25;;;;;;;20.02;27.94;102057.28;4197627;28;20049;-68
2022/04/30 05:24:59;;;;;;;9.98;2.60;;;;;;;20.01;28.46;102050.03;4199557;28;20040;-68
2022/04/30 05:27:01;;;;;;;8.30;1.80;;;;;;;20.01;28.48;102050.03;4198938;28;20106;-68
2022/04/30 05:29:03;;;;;;;10.50;2.60;;;;;;;20.02;28.46;102040.63;4197854;28;20293;-67
2022/04/30 05:31:07;;;;;;;7.43;1.98;;;;;;;20.02;28.11;102040.63;4199255;28;20387;-68
2022/04/30 05:33:08;;;;;;;7.20;1.85;;;;;;;20.03;28.22;102036.78;4190008;28;20040;-69
2022/04/30 05:35:10;;;;;;;13.95;2.63;;;;;;;20.00;28.24;102034.47;4184582;28;20094;-68
2022/04/30 05:37:12;;;;;;;11.80;2.60;;;;;;;19.92;28.55;102019.03;4199165;28;20434;-69
2022/04/30 05:39:19;;;;;;;10.45;2.17;;;;;;;20.05;28.36;102042.91;4198563;28;20041;-68
2022/04/30 05:41:20;;;;;;;8.93;2.30;;;;;;;20.04;28.68;102035.66;4184411;28;20045;-68
2022/04/30 05:43:22;;;;;;;6.55;2.10;;;;;;;20.04;28.78;102038.44;4181562;28;20523;-68
2022/04/30 05:45:23;;;;;;;6.25;2.28;;;;;;;20.03;28.70;102036.78;4181209;28;20481;-68
2022/04/30 05:47:25;;;;;;;9.15;2.35;;;;;;;20.05;28.98;102040.13;4182654;28;20542;-68
2022/04/30 05:49:27;;;;;;;12.05;2.22;;;;;;;20.06;28.55;102039.03;4188803;28;20052;-68
2022/04/30 05:51:28;;;;;;;7.85;2.60;;;;;;;19.93;28.95;102020.75;4198672;28;20132;-68
2022/04/30 05:53:29;;;;;;;6.57;2.10;;;;;;;20.05;28.63;102035.41;4196315;28;20462;-68
2022/04/30 05:55:31;;;;;;;7.10;2.20;;;;;;;19.90;28.84;102014.84;4196602;28;20205;-68
2022/04/30 05:57:35;;;;;;;6.47;2.70;;;;;;;20.05;29.15;102029.84;4198611;28;20090;-68
2022/04/30 05:59:36;;;;;;;7.82;2.20;;;;;;;20.06;29.05;102027.91;4196408;28;20040;-68
2022/04/30 06:01:38;;;;;;;6.40;2.30;;;;;;;20.03;28.83;102025.66;4198818;28;20109;-69
2022/04/30 06:03:39;;;;;;;7.88;2.28;;;;;;;20.04;29.31;102032.88;4196881;28;20468;-68
2022/04/30 06:05:41;;;;;;;4.97;2.20;;;;;;;20.06;29.16;102036.25;4198405;28;20098;-68
2022/04/30 06:07:45;;;;;;;6.13;2.10;;;;;;;20.04;29.24;102032.88;4197054;28;20422;-67
2022/04/30 06:09:46;;;;;;;6.85;2.10;;;;;;;20.05;29.24;102040.97;4196832;28;20442;-68
2022/04/30 06:11:48;;;;;;;5.28;1.98;;;;;;;20.05;29.33;102026.22;4198202;28;20053;-68
2022/04/30 06:13:49;;;;;;;6.38;2.15;;;;;;;20.05;29.40;102029.00;4195190;28;20086;-68
2022/04/30 06:15:53;;;;;;;5.65;2.15;;;;;;;20.03;29.51;102018.16;4197764;28;20044;-68
2022/04/30 06:17:55;;;;;;;9.52;2.45;;;;;;;20.03;29.39;102012.59;4196696;28;20074;-68
2022/04/30 06:19:59;;;;;;;4.75;2.05;;;;;;;20.08;29.50;102014.63;4198372;28;20036;-68
2022/04/30 06:22:01;;;;;;;7.22;1.92;;;;;;;20.08;29.25;102022.97;4198048;28;20090;-68
2022/04/30 06:24:03;;;;;;;6.05;1.80;;;;;;;20.08;29.64;102017.41;4194976;28;20045;-67
2022/04/30 06:26:04;;;;;;;5.50;2.30;;;;;;;20.02;29.68;102001.72;4197942;28;20094;-68
2022/04/30 06:28:12;;;;;;;6.32;2.00;;;;;;;20.02;29.87;102012.81;4194614;28;20041;-68
2022/04/30 06:30:16;;;;;;;11.50;3.63;;;;;;;20.07;29.45;102024.06;4164980;28;20048;-68
2022/04/30 06:32:18;;;;;;;8.90;2.38;;;;;;;20.07;29.73;102024.06;4197108;28;20372;-68
2022/04/30 06:34:19;;;;;;;9.70;2.25;;;;;;;20.09;29.98;102023.81;4196437;28;20044;-68
2022/04/30 06:36:21;;;;;;;7.03;2.03;;;;;;;20.08;30.00;102019.34;4197716;28;20040;-68
2022/04/30 06:38:25;;;;;;;8.68;2.00;;;;;;;20.08;29.96;102014.63;4196450;28;20125;-68
2022/04/30 06:40:26;;;;;;;6.78;2.65;;;;;;;20.08;29.92;102017.41;4184458;28;20049;-69
2022/04/30 06:42:37;;;;;;;6.85;2.22;;;;;;;19.99;29.95;102008.63;4184053;28;20147;-69
2022/04/30 06:44:41;;;;;;;10.95;2.15;;;;;;;19.98;29.66;102000.56;4181409;28;20033;-69
2022/04/30 06:46:43;;;;;;;5.95;1.90;;;;;;;20.11;29.62;102008.56;4181097;28;20075;-68
2022/04/30 06:48:45;;;;;;;6.07;2.03;;;;;;;19.93;29.56;101980.97;4181567;28;20041;-68
2022/04/30 06:50:49;;;;;;;6.90;2.17;;;;;;;20.10;29.59;102012.44;4181489;28;20075;-69
2022/04/30 06:57:37;;;;;;;7.20;1.90;;;;;;;20.17;29.54;102003.97;4169159;28;20533;-69
2022/04/30 06:59:44;;;;;;;3.63;1.42;;;;;;;20.00;29.70;101970.56;4185630;28;20098;-69
2022/04/30 07:02:02;;;;;;;3.28;1.60;;;;;;;20.20;29.83;102007.06;4174330;28;20106;-69
2022/04/30 07:04:05;;;;;;;5.50;1.52;;;;;;;20.20;29.72;102014.56;4181587;28;20129;-69
2022/04/30 07:06:09;;;;;;;3.05;1.75;;;;;;;20.24;29.70;102019.34;4180832;28;20041;-67
2022/04/30 07:08:12;;;;;;;3.50;1.90;;;;;;;20.25;29.81;102021.06;4181404;28;20041;-68
2022/04/30 07:10:14;;;;;;;4.20;1.58;;;;;;;20.25;29.81;102023.84;4181266;28;20480;-69
2022/04/30 07:12:17;;;;;;;4.38;1.50;;;;;;;20.26;29.98;102019.97;4181043;28;20045;-67
2022/04/30 07:14:21;;;;;;;4.70;1.60;;;;;;;20.29;29.93;102013.06;4181525;28;20024;-68
2022/04/30 07:16:22;;;;;;;3.53;1.55;;;;;;;20.29;29.89;102016.66;4181038;28;20484;-69
2022/04/30 07:18:24;;;;;;;3.65;1.52;;;;;;;20.31;30.16;102022.00;4181533;28;20025;-69
2022/04/30 07:20:26;;;;;;;7.43;1.70;;;;;;;20.28;29.90;102012.22;4181051;28;20091;-69
2022/04/30 07:22:27;;;;;;;3.65;1.60;;;;;;;20.32;30.02;102018.13;4181452;28;20090;-70
2022/04/30 07:24:30;;;;;;;6.57;1.40;;;;;;;20.36;29.90;102024.03;4181942;28;20102;-68
2022/04/30 07:26:32;;;;;;;2.15;1.20;;;;;;;20.35;30.01;102023.19;4181903;28;20041;-68
2022/04/30 07:28:35;;;;;;;3.72;1.00;;;;;;;20.35;30.10;102014.00;4184120;28;20036;-68
2022/04/30 07:30:36;;;;;;;3.42;1.67;;;;;;;20.32;30.00;102018.13;4185416;28;20438;-68
2022/04/30 07:32:40;;;;;;;3.97;1.33;;;;;;;20.38;30.15;102022.66;4189156;28;20126;-68
2022/04/30 07:34:42;;;;;;;4.70;1.33;;;;;;;20.39;30.00;102017.94;4193143;28;20041;-68
2022/04/30 07:36:44;;;;;;;3.67;1.67;;;;;;;20.37;29.94;102020.16;4200504;28;20273;-68
2022/04/30 07:38:45;;;;;;;2.35;1.35;;;;;;;20.41;29.85;102021.34;4201218;28;20078;-68
2022/04/30 07:40:47;;;;;;;3.90;1.50;;;;;;;20.41;29.83;102018.56;4200503;28;20033;-68
2022/04/30 07:42:48;;;;;;;3.85;1.35;;;;;;;20.41;29.96;102016.59;4201036;28;20052;-69
2022/04/30 07:44:49;;;;;;;5.40;1.40;;;;;;;20.42;30.20;102023.00;4200942;28;20036;-69
2022/04/30 07:46:54;;;;;;;3.63;1.50;;;;;;;20.44;30.34;102009.72;4200425;28;20106;-69
2022/04/30 07:48:58;;;;;;;2.53;1.33;;;;;;;20.44;30.09;102015.28;4200898;28;20256;-69
2022/04/30 07:51:00;;;;;;;4.88;1.75;;;;;;;20.45;29.87;102006.66;4199719;28;20445;-69
2022/04/30 07:53:06;;;;;;;3.20;1.33;;;;;;;20.45;30.11;102011.41;4199958;28;20032;-68
2022/04/30 07:55:07;;;;;;;2.65;1.50;;;;;;;20.47;29.92;102014.75;4186623;28;20041;-68
2022/04/30 07:57:09;;;;;;;6.30;1.55;;;;;;;20.47;30.04;102012.84;4183974;28;20036;-69
2022/04/30 07:59:10;;;;;;;2.95;1.38;;;;;;;20.48;30.01;102010.91;4184214;28;20099;-69
2022/04/30 08:01:13;;;;;;;3.67;1.88;;;;;;;20.49;30.23;102012.63;4183915;28;20025;-69
2022/04/30 08:03:14;;;;;;;2.67;1.20;;;;;;;20.49;29.97;102010.66;4184237;28;20048;-69
2022/04/30 08:05:16;;;;;;;3.97;1.58;;;;;;;20.47;30.49;102010.06;4183277;28;20475;-69
2022/04/30 08:07:17;;;;;;;4.13;1.52;;;;;;;20.50;30.35;102008.72;4183823;28;20045;-69
2022/04/30 08:09:19;;;;;;;5.25;1.50;;;;;;;20.50;30.25;102008.72;4184742;28;20110;-70
2022/04/30 08:11:20;;;;;;;4.03;1.65;;;;;;;20.51;30.02;102004.84;4184773;28;20102;-69
2022/04/30 08:13:22;;;;;;;2.50;1.55;;;;;;;20.50;30.17;102005.94;4184478;28;20481;-68
2022/04/30 08:15:24;;;;;;;1.95;1.40;;;;;;;20.50;30.08;102009.56;4183771;28;20476;-68
2022/04/30 08:17:27;;;;;;;4.00;1.73;;;;;;;20.50;30.30;102011.50;4184775;28;20041;-69
2022/04/30 08:19:28;;;;;;;3.58;1.27;;;;;;;20.35;30.00;101975.09;4184669;28;20083;-69
2022/04/30 08:21:30;;;;;;;3.53;1.40;;;;;;;20.52;30.33;102006.53;4184485;28;20041;-69
2022/04/30 08:23:36;;;;;;;4.20;1.42;;;;;;;20.50;30.34;102004.00;4183944;28;20094;-69
2022/04/30 08:25:40;;;;;;;5.47;1.38;;;;;;;20.53;30.12;102008.25;4183993;28;20472;-69
2022/04/30 08:27:41;;;;;;;3.10;1.40;;;;;;;20.51;30.07;101994.56;4184131;28;20049;-69
2022/04/30 08:29:44;;;;;;;2.78;1.50;;;;;;;20.52;30.36;102006.53;4183430;28;20114;-69
2022/04/30 08:31:46;;;;;;;3.85;1.60;;;;;;;20.53;30.10;102002.66;4183862;28;20114;-68
2022/04/30 08:33:50;;;;;;;4.05;1.63;;;;;;;20.52;30.66;102009.31;4183669;28;20099;-68
2022/04/30 08:35:56;;;;;;;1.52;1.00;;;;;;;20.53;30.47;102006.28;4183001;28;20044;-69
2022/04/30 08:37:57;;;;;;;3.60;1.40;;;;;;;20.50;30.41;102003.16;4183448;28;20729;-69
2022/04/30 08:39:58;;;;;;;1.75;1.10;;;;;;;20.53;30.30;102002.66;4181663;28;20045;-69
2022/04/30 08:42:00;;;;;;;3.63;1.35;;;;;;;20.53;30.33;101997.94;4181525;28;20095;-69
2022/04/30 08:44:01;;;;;;;4.97;1.48;;;;;;;20.53;30.52;101997.94;4181705;28;20037;-69
2022/04/30 08:46:03;;;;;;;2.83;1.30;;;;;;;20.49;30.34;101995.94;4181450;28;20041;-69
2022/04/30 08:48:09;;;;;;;4.93;1.67;;;;;;;20.53;30.69;101999.91;4181291;28;20037;-69
2022/04/30 08:50:13;;;;;;;3.58;1.20;;;;;;;20.55;30.63;102000.47;4181309;28;20102;-69
2022/04/30 08:52:15;;;;;;;3.53;1.40;;;;;;;20.54;30.45;102004.34;4181307;28;20094;-69
2022/04/30 08:54:16;;;;;;;2.05;1.50;;;;;;;20.45;30.69;101995.56;4182842;28;20475;-69
2022/04/30 08:56:18;;;;;;;2.50;1.20;;;;;;;20.41;30.43;101982.41;4182647;28;20041;-69
2022/04/30 08:58:19;;;;;;;2.83;1.30;;;;;;;20.54;30.58;102004.34;4183046;28;20041;-69
2022/04/30 09:00:20;;;;;;;4.50;1.20;;;;;;;20.54;30.77;102009.91;4183392;28;20439;-69
2022/04/30 09:02:22;;;;;;;3.03;1.42;;;;;;;20.45;30.82;101994.72;4182284;28;20037;-68
2022/04/30 09:04:25;;;;;;;5.10;1.40;;;;;;;20.47;30.43;102003.63;4182277;28;20419;-69
2022/04/30 09:06:29;;;;;;;3.05;1.30;;;;;;;20.54;30.85;102015.47;4182237;28;20443;-69
2022/04/30 09:08:31;;;;;;;3.30;1.33;;;;;;;20.54;30.88;102021.03;4181686;28;20094;-69
2022/04/30 09:10:34;;;;;;;3.33;1.30;;;;;;;20.54;30.58;102018.25;4183342;28;20045;-69
2022/04/30 09:12:43;;;;;;;3.28;1.38;;;;;;;20.53;30.67;102025.75;4181062;28;20041;-69
2022/04/30 09:14:45;;;;;;;2.38;1.45;;;;;;;20.54;30.79;102026.59;4182566;28;20033;-69
2022/04/30 09:16:47;;;;;;;4.18;1.20;;;;;;;20.54;30.76;102027.44;4182749;28;20423;-69
2022/04/30 09:18:50;;;;;;;1.40;1.23;;;;;;;20.54;30.38;102032.16;4183054;28;20033;-69
2022/04/30 09:20:54;;;;;;;2.65;1.50;;;;;;;20.53;30.55;102034.09;4182752;28;20040;-69
2022/04/30 09:22:56;;;;;;;1.83;1.17;;;;;;;20.53;30.73;102036.88;4182545;28;20033;-69
2022/04/30 09:24:59;;;;;;;2.50;1.40;;;;;;;20.54;30.42;102035.78;4182469;28;20041;-69
2022/04/30 09:27:04;;;;;;;2.53;1.70;;;;;;;20.34;30.57;102004.78;4182286;28;20045;-69
2022/04/30 09:29:24;;;;;;;3.40;1.40;;;;;;;20.40;30.88;102009.38;4182688;28;20533;-69
2022/04/30 09:31:26;;;;;;;3.13;1.30;;;;;;;20.56;30.72;102029.94;4182329;28;20045;-68
2022/04/30 09:33:27;;;;;;;1.52;1.25;;;;;;;20.53;30.50;102027.69;4182278;28;20049;-69
2022/04/30 09:37:53;;;;;;;1.90;1.40;;;;;;;20.53;30.68;102041.59;4183585;28;20173;-69
2022/04/30 09:39:56;;;;;;;2.72;1.17;;;;;;;20.49;30.64;102034.84;4184079;28;20095;-70
2022/04/30 09:42:01;;;;;;;2.28;1.20;;;;;;;20.36;30.40;102018.47;4181994;28;20049;-69
2022/04/30 09:44:05;;;;;;;2.03;1.30;;;;;;;20.39;30.87;102023.50;4182113;28;20041;-69
2022/04/30 09:46:08;;;;;;;1.85;1.50;;;;;;;20.55;30.70;102044.97;4181834;28;20095;-68
2022/04/30 09:55:09;;;;;;;2.80;1.40;;;;;;;20.53;30.75;102050.78;4181919;28;20063;-69
2022/04/30 09:57:14;;;;;;;3.83;1.30;;;;;;;20.55;30.65;102053.31;4182265;28;20033;-69
2022/04/30 09:59:16;;;;;;;1.77;1.10;;;;;;;20.54;30.82;102051.63;4182138;28;20036;-69
2022/04/30 10:01:18;;;;;;;1.95;1.20;;;;;;;20.45;30.48;102039.19;4182265;28;20106;-68
2022/04/30 10:03:23;;;;;;;2.05;1.33;;;;;;;20.53;30.43;102055.50;4182091;28;20464;-68
2022/04/30 10:05:25;;;;;;;1.35;1.10;;;;;;;20.54;30.68;102048.84;4181233;28;20041;-68
2022/04/30 10:07:27;;;;;;;2.22;1.17;;;;;;;20.53;30.46;102041.59;4188624;28;20032;-68